createdAt,value
2022-11-02T00:02:41.075Z,9.10
2022-11-02T00:06:41.497Z,9.10
2022-11-02T00:10:41.707Z,9.10
2022-11-02T00:14:44.458Z,9.10
2022-11-02T00:18:47.663Z,9.10
2022-11-02T00:22:50.619Z,9.10
2022-11-02T00:26:50.995Z,9.00
2022-11-02T00:30:53.779Z,9.00
2022-11-02T00:34:53.880Z,8.90
2022-11-02T00:38:54.273Z,8.90
2022-11-02T00:42:54.404Z,8.90
2022-11-02T00:46:57.193Z,8.80
2022-11-02T00:50:58.362Z,8.70
2022-11-02T00:55:01.788Z,8.70
2022-11-02T00:59:03.351Z,8.60
2022-11-02T01:03:06.562Z,8.60
2022-11-02T01:07:07.419Z,8.60
2022-11-02T01:11:16.504Z,8.50
2022-11-02T01:15:17.498Z,8.50
2022-11-02T01:19:20.269Z,8.50
2022-11-02T01:23:20.372Z,8.50
2022-11-02T01:27:21.117Z,8.50
2022-11-02T01:31:21.486Z,8.40
2022-11-02T01:35:24.260Z,8.50
2022-11-02T01:39:24.444Z,8.40
2022-11-02T01:43:27.629Z,8.40
2022-11-02T01:47:32.580Z,8.30
2022-11-02T01:51:42.755Z,8.20
2022-11-02T01:55:44.260Z,8.10
2022-11-02T01:59:50.711Z,8.10
2022-11-02T02:03:52.750Z,8.00
2022-11-02T02:07:56.687Z,8.00
2022-11-02T02:11:56.806Z,7.90
2022-11-02T02:16:10.953Z,7.90
2022-11-02T02:20:23.472Z,7.80
2022-11-02T02:24:51.186Z,7.80
2022-11-02T02:29:02.667Z,7.80
2022-11-02T02:33:11.931Z,7.80
2022-11-02T02:37:21.458Z,7.70
2022-11-02T02:41:32.107Z,7.70
2022-11-02T02:45:41.496Z,7.60
2022-11-02T02:49:53.375Z,7.50
2022-11-02T02:54:03.325Z,7.50
2022-11-02T02:58:07.313Z,7.40
2022-11-02T03:02:19.870Z,7.20
2022-11-02T03:06:27.605Z,7.20
2022-11-02T03:10:37.591Z,7.10
2022-11-02T03:14:55.843Z,7.20
2022-11-02T03:19:15.414Z,7.10
2022-11-02T03:23:24.535Z,7.10
2022-11-02T03:27:36.868Z,7.10
2022-11-02T03:31:44.345Z,7.00
2022-11-02T03:35:58.204Z,7.00
2022-11-02T03:40:11.847Z,7.00
2022-11-02T03:44:20.120Z,7.00
2022-11-02T03:48:24.692Z,6.90
2022-11-02T03:52:35.198Z,6.90
2022-11-02T03:56:42.345Z,6.80
2022-11-02T04:00:53.079Z,6.60
2022-11-02T04:04:55.202Z,6.60
2022-11-02T04:09:00.990Z,6.60
2022-11-02T04:13:26.089Z,6.60
2022-11-02T04:17:38.824Z,6.50
2022-11-02T04:22:04.774Z,6.40
2022-11-02T04:26:07.243Z,6.30
2022-11-02T04:30:16.187Z,6.20
2022-11-02T04:34:16.448Z,6.10
2022-11-02T04:38:29.186Z,5.90
2022-11-02T04:42:33.494Z,5.80
2022-11-02T04:46:38.250Z,5.70
2022-11-02T04:50:40.279Z,5.60
2022-11-02T04:54:42.053Z,5.50
2022-11-02T04:58:45.223Z,5.30
2022-11-02T05:02:45.556Z,5.30
2022-11-02T05:06:45.818Z,5.20
2022-11-02T05:10:46.259Z,5.10
2022-11-02T05:14:49.416Z,5.00
2022-11-02T05:18:50.476Z,5.00
2022-11-02T05:22:52.499Z,4.90
2022-11-02T05:26:54.619Z,4.90
2022-11-02T05:31:03.352Z,4.90
2022-11-02T05:35:06.234Z,4.80
2022-11-02T05:39:07.369Z,4.80
2022-11-02T05:43:08.187Z,4.80
2022-11-02T05:47:11.910Z,4.70
2022-11-02T05:51:13.955Z,4.70
2022-11-02T05:55:14.855Z,4.70
2022-11-02T05:59:15.031Z,4.60
2022-11-02T06:03:17.943Z,4.60
2022-11-02T06:07:18.068Z,4.70
2022-11-02T06:11:20.234Z,4.70
2022-11-02T06:15:20.528Z,4.60
2022-11-02T06:19:23.364Z,4.60
2022-11-02T06:23:23.585Z,4.60
2022-11-02T06:27:25.599Z,4.50
2022-11-02T06:31:25.938Z,4.50
2022-11-02T06:35:28.678Z,4.50
2022-11-02T06:39:28.826Z,4.50
2022-11-02T06:43:29.360Z,4.60
2022-11-02T06:47:33.981Z,4.70
2022-11-02T06:51:37.024Z,5.00
2022-11-02T06:55:37.219Z,5.20
2022-11-02T06:59:37.435Z,5.50
2022-11-02T07:03:38.160Z,5.80
2022-11-02T07:07:40.942Z,6.00
2022-11-02T07:11:41.078Z,6.20
2022-11-02T07:15:42.121Z,6.30
2022-11-02T07:19:42.319Z,6.30
2022-11-02T07:23:45.050Z,6.40
2022-11-02T07:27:45.181Z,6.70
2022-11-02T07:31:45.487Z,7.20
2022-11-02T07:35:45.608Z,7.80
2022-11-02T07:39:48.415Z,8.20
2022-11-02T07:43:48.689Z,8.30
2022-11-02T07:47:58.697Z,8.60
2022-11-02T07:51:59.541Z,8.80
2022-11-02T07:56:03.696Z,9.10
2022-11-02T08:00:03.915Z,9.40
2022-11-02T08:04:11.760Z,9.90
2022-11-02T08:08:15.960Z,10.30
2022-11-02T08:12:18.768Z,10.70
2022-11-02T08:16:18.888Z,11.00
2022-11-02T08:20:19.998Z,11.30
2022-11-02T08:24:20.208Z,11.50
2022-11-02T08:28:25.892Z,11.90
2022-11-02T08:32:26.023Z,12.40
2022-11-02T08:36:26.144Z,12.70
2022-11-02T08:40:27.040Z,12.90
2022-11-02T08:44:29.831Z,13.20
2022-11-02T08:48:30.465Z,13.40
2022-11-02T08:52:30.613Z,13.70
2022-11-02T08:56:33.736Z,13.70
2022-11-02T09:00:37.806Z,13.80
2022-11-02T09:04:38.030Z,13.90
2022-11-02T09:08:38.237Z,13.90
2022-11-02T09:12:38.498Z,14.10
2022-11-02T09:16:41.891Z,14.00
2022-11-02T09:20:42.099Z,14.00
2022-11-02T09:24:42.216Z,14.10
2022-11-02T09:28:42.532Z,14.20
2022-11-02T09:32:45.213Z,14.00
2022-11-02T09:36:45.686Z,13.90
2022-11-02T09:40:54.037Z,13.50
2022-11-02T09:45:03.374Z,13.20
2022-11-02T09:49:14.072Z,13.20
2022-11-02T09:53:24.711Z,13.20
2022-11-02T09:57:31.788Z,13.20
2022-11-02T10:01:56.221Z,13.10
2022-11-02T10:06:06.572Z,12.90
2022-11-02T10:10:17.959Z,12.50
2022-11-02T10:14:25.376Z,11.70
2022-11-02T10:18:30.042Z,11.40
2022-11-02T10:22:40.579Z,11.20
2022-11-02T10:26:43.651Z,11.10
2022-11-02T10:30:46.737Z,11.20
2022-11-02T10:34:58.511Z,11.50
2022-11-02T10:39:22.029Z,12.20
2022-11-02T10:43:41.083Z,13.00
2022-11-02T10:47:55.649Z,13.60
2022-11-02T10:51:55.823Z,14.20
2022-11-02T10:56:07.734Z,14.80
2022-11-02T11:00:32.636Z,15.20
2022-11-02T11:04:35.144Z,15.20
2022-11-02T11:08:42.699Z,15.60
2022-11-02T11:12:46.467Z,15.90
2022-11-02T11:16:51.897Z,16.10
2022-11-02T11:20:58.855Z,16.70
2022-11-02T11:25:28.029Z,16.80
2022-11-02T11:29:34.997Z,17.00
2022-11-02T11:33:43.832Z,16.20
2022-11-02T11:37:52.512Z,16.00
2022-11-02T11:41:52.892Z,15.70
2022-11-02T11:46:07.242Z,15.30
2022-11-02T11:50:20.017Z,15.30
2022-11-02T11:54:28.509Z,15.20
2022-11-02T11:58:30.930Z,14.80
2022-11-02T12:02:42.977Z,14.80
2022-11-02T12:06:57.861Z,15.00
2022-11-02T12:11:24.796Z,15.20
2022-11-02T12:15:45.311Z,16.00
2022-11-02T12:20:15.494Z,17.10
2022-11-02T12:24:49.707Z,17.80
2022-11-02T12:29:10.446Z,17.80
2022-11-02T12:33:37.516Z,16.70
2022-11-02T12:38:00.429Z,15.90
2022-11-02T12:42:20.470Z,15.10
2022-11-02T12:46:39.086Z,14.60
2022-11-02T12:51:00.856Z,14.60
2022-11-02T12:55:12.105Z,14.60
2022-11-02T12:59:24.431Z,14.50
2022-11-02T13:03:38.587Z,14.20
2022-11-02T13:07:47.254Z,14.00
2022-11-02T13:11:59.422Z,13.90
2022-11-02T13:16:00.759Z,14.00
2022-11-02T13:20:08.452Z,14.20
2022-11-02T13:24:16.224Z,15.00
2022-11-02T13:28:33.894Z,15.90
2022-11-02T13:32:41.985Z,16.50
2022-11-02T13:36:43.306Z,17.00
2022-11-02T13:40:50.719Z,16.70
2022-11-02T13:45:37.548Z,15.60
2022-11-02T13:49:43.252Z,15.00
2022-11-02T13:53:52.236Z,14.70
2022-11-02T13:57:57.696Z,14.60
2022-11-02T14:02:04.465Z,14.10
2022-11-02T14:06:14.051Z,14.40
2022-11-02T14:10:21.711Z,14.80
2022-11-02T14:14:26.050Z,15.00
2022-11-02T14:18:35.465Z,15.10
2022-11-02T14:22:35.686Z,15.40
2022-11-02T14:26:59.606Z,15.90
2022-11-02T14:31:28.766Z,15.90
2022-11-02T14:35:59.564Z,15.50
2022-11-02T14:40:14.348Z,15.70
2022-11-02T14:45:03.236Z,15.60
2022-11-02T14:49:06.509Z,16.00
2022-11-02T14:53:21.742Z,16.70
2022-11-02T14:57:28.821Z,17.30
2022-11-02T15:01:29.074Z,17.40
2022-11-02T15:05:33.880Z,17.50
2022-11-02T15:10:02.496Z,17.50
2022-11-02T15:14:02.611Z,17.00
2022-11-02T15:18:25.127Z,16.60
2022-11-02T15:22:40.740Z,15.90
2022-11-02T15:26:50.987Z,15.20
2022-11-02T15:30:55.658Z,14.70
2022-11-02T15:34:58.423Z,14.30
2022-11-02T15:38:59.667Z,14.00
2022-11-02T15:43:28.544Z,13.60
2022-11-02T15:47:45.805Z,13.00
2022-11-02T15:51:58.502Z,12.40
2022-11-02T15:56:23.986Z,12.00
2022-11-02T16:00:30.400Z,11.60
2022-11-02T16:04:31.364Z,11.30
2022-11-02T16:08:38.034Z,11.10
2022-11-02T16:12:38.240Z,10.80
2022-11-02T16:16:50.524Z,10.50
2022-11-02T16:20:50.833Z,10.30
2022-11-02T16:24:52.230Z,10.10
2022-11-02T16:28:55.145Z,9.80
2022-11-02T16:33:04.710Z,9.70
2022-11-02T16:37:10.350Z,9.50
2022-11-02T16:41:12.598Z,9.40
2022-11-02T16:45:43.276Z,9.30
2022-11-02T16:50:04.276Z,9.20
2022-11-02T16:54:30.336Z,9.00
2022-11-02T16:58:31.764Z,8.90
2022-11-02T17:02:41.146Z,8.70
2022-11-02T17:06:47.132Z,8.60
2022-11-02T17:10:48.098Z,8.40
2022-11-02T17:14:51.895Z,8.30
2022-11-02T17:18:52.146Z,8.20
2022-11-02T17:23:01.761Z,8.10
2022-11-02T17:27:21.707Z,8.00
2022-11-02T17:31:25.498Z,7.90
2022-11-02T17:35:27.425Z,7.90
2022-11-02T17:39:30.691Z,7.80
2022-11-02T17:43:31.136Z,7.70
2022-11-02T17:47:32.435Z,7.60
2022-11-02T17:51:33.250Z,7.40
2022-11-02T17:55:37.693Z,7.30
2022-11-02T17:59:37.798Z,7.30
2022-11-02T18:03:37.921Z,7.20
2022-11-02T18:07:38.080Z,7.10
2022-11-02T18:11:40.826Z,7.00
2022-11-02T18:15:41.352Z,7.00
2022-11-02T18:19:41.403Z,6.90
2022-11-02T18:23:43.498Z,6.80
2022-11-02T18:27:46.522Z,6.70
2022-11-02T18:31:46.734Z,6.60
2022-11-02T18:35:47.325Z,6.50
2022-11-02T18:39:47.516Z,6.50
2022-11-02T18:43:50.272Z,6.40
2022-11-02T18:47:50.459Z,6.40
2022-11-02T18:51:50.606Z,6.30
2022-11-02T18:55:50.804Z,6.20
2022-11-02T18:59:53.551Z,6.10
2022-11-02T19:03:54.259Z,6.10
2022-11-02T19:08:07.082Z,5.90
2022-11-02T19:12:11.628Z,5.90
2022-11-02T19:16:14.396Z,5.80
2022-11-02T19:20:15.001Z,5.70
2022-11-02T19:24:15.724Z,5.60
2022-11-02T19:28:15.883Z,5.50
2022-11-02T19:32:19.539Z,5.40
2022-11-02T19:36:20.034Z,5.40
2022-11-02T19:40:20.097Z,5.30
2022-11-02T19:44:20.484Z,5.30
2022-11-02T19:48:23.190Z,5.20
2022-11-02T19:52:23.972Z,5.10
2022-11-02T19:56:27.446Z,5.00
2022-11-02T20:00:27.628Z,5.00
2022-11-02T20:04:30.474Z,4.90
2022-11-02T20:08:30.606Z,4.90
2022-11-02T20:12:30.643Z,4.90
2022-11-02T20:16:31.662Z,4.80
2022-11-02T20:20:34.476Z,4.70
2022-11-02T20:24:34.631Z,4.70
2022-11-02T20:28:35.179Z,4.60
2022-11-02T20:32:35.273Z,4.60
2022-11-02T20:36:39.441Z,4.50
2022-11-02T20:40:41.394Z,4.50
2022-11-02T20:44:42.139Z,4.40
2022-11-02T20:48:42.398Z,4.30
2022-11-02T20:52:46.804Z,4.30
2022-11-02T20:56:46.949Z,4.20
2022-11-02T21:00:49.275Z,4.20
2022-11-02T21:04:49.654Z,4.20
2022-11-02T21:08:52.532Z,4.10
2022-11-02T21:13:05.518Z,4.00
2022-11-02T21:17:07.887Z,4.00
2022-11-02T21:21:10.530Z,3.90
2022-11-02T21:25:14.413Z,3.90
2022-11-02T21:29:14.828Z,3.80
2022-11-02T21:33:14.911Z,3.80
2022-11-02T21:37:15.044Z,3.70
2022-11-02T21:41:26.123Z,3.60
2022-11-02T21:45:26.527Z,3.60
2022-11-02T21:49:26.831Z,3.60
2022-11-02T21:53:27.165Z,3.60
2022-11-02T21:57:29.923Z,3.60
2022-11-02T22:01:49.316Z,3.50
2022-11-02T22:05:59.671Z,3.40
2022-11-02T22:09:59.979Z,3.40
2022-11-02T22:14:04.036Z,3.40
2022-11-02T22:18:04.208Z,3.40
2022-11-02T22:22:05.145Z,3.30
2022-11-02T22:26:08.919Z,3.30
2022-11-02T22:30:13.855Z,3.30
2022-11-02T22:34:16.252Z,3.20
2022-11-02T22:38:28.882Z,3.20
2022-11-02T22:42:29.021Z,3.20
2022-11-02T22:46:35.185Z,3.20
2022-11-02T22:50:35.347Z,3.10
2022-11-02T22:54:35.467Z,3.00
2022-11-02T22:58:36.306Z,3.00
2022-11-02T23:02:39.113Z,3.00
2022-11-02T23:06:39.205Z,2.90
2022-11-02T23:10:54.477Z,2.80
2022-11-02T23:14:54.830Z,2.80
2022-11-02T23:19:18.892Z,2.70
2022-11-02T23:23:36.081Z,2.70
2022-11-02T23:28:00.130Z,2.60
2022-11-02T23:32:12.958Z,2.60
2022-11-02T23:36:16.142Z,2.60
2022-11-02T23:40:20.140Z,2.50
2022-11-02T23:44:20.319Z,2.50
2022-11-02T23:48:20.510Z,2.40
2022-11-02T23:52:35.699Z,2.40
2022-11-02T23:56:46.589Z,2.50
